createdAt,value
2019-05-12T00:02:14.396Z,96.20
2019-05-12T00:04:40.545Z,96.20
2019-05-12T00:07:08.724Z,96.20
2019-05-12T00:09:34.859Z,96.40
2019-05-12T00:12:01.038Z,96.30
2019-05-12T00:14:28.248Z,96.30
2019-05-12T00:16:54.696Z,96.30
2019-05-12T00:19:20.878Z,96.70
2019-05-12T00:21:48.342Z,96.30
2019-05-12T00:24:14.868Z,96.40
2019-05-12T00:26:41.131Z,96.40
2019-05-12T00:29:07.789Z,96.50
2019-05-12T00:31:34.089Z,96.40
2019-05-12T00:34:00.284Z,96.70
2019-05-12T00:36:29.062Z,96.80
2019-05-12T00:38:54.625Z,97.00
2019-05-12T00:41:20.860Z,96.90
2019-05-12T00:43:48.743Z,96.90
2019-05-12T00:46:15.102Z,96.90
2019-05-12T00:48:41.265Z,96.90
2019-05-12T00:51:07.834Z,96.90
2019-05-12T00:53:39.873Z,97.00
2019-05-12T00:56:02.198Z,97.00
2019-05-12T00:58:28.365Z,97.10
2019-05-12T01:00:54.688Z,97.10
2019-05-12T01:03:20.840Z,97.00
2019-05-12T01:05:48.482Z,97.20
2019-05-12T01:08:15.024Z,97.10
2019-05-12T01:10:41.269Z,96.90
2019-05-12T01:13:08.620Z,96.80
2019-05-12T01:15:37.563Z,96.90
2019-05-12T01:18:03.348Z,96.80
2019-05-12T01:20:29.626Z,96.90
2019-05-12T01:22:57.945Z,96.90
2019-05-12T01:25:23.873Z,96.80
2019-05-12T01:27:50.042Z,96.80
2019-05-12T01:30:18.099Z,96.90
2019-05-12T01:32:44.397Z,96.90
2019-05-12T01:35:11.764Z,97.10
2019-05-12T01:37:38.434Z,97.10
2019-05-12T01:40:08.496Z,97.10
2019-05-12T01:42:33.793Z,97.30
2019-05-12T01:44:59.992Z,97.40
2019-05-12T01:47:28.921Z,97.30
2019-05-12T01:49:54.237Z,97.10
2019-05-12T01:52:20.420Z,97.30
2019-05-12T01:54:48.374Z,97.30
2019-05-12T01:57:14.677Z,97.30
2019-05-12T01:59:40.853Z,97.40
2019-05-12T02:02:08.605Z,97.40
2019-05-12T02:04:55.507Z,97.40
2019-05-12T02:07:21.802Z,97.40
2019-05-12T02:09:48.282Z,97.40
2019-05-12T02:12:14.466Z,97.30
2019-05-12T02:14:40.782Z,97.40
2019-05-12T02:17:08.809Z,97.50
2019-05-12T02:19:35.130Z,97.70
2019-05-12T02:22:01.318Z,97.70
2019-05-12T02:24:30.483Z,97.70
2019-05-12T02:26:57.881Z,97.60
2019-05-12T02:29:24.080Z,97.60
2019-05-12T02:31:50.424Z,97.70
2019-05-12T02:34:16.768Z,97.80
2019-05-12T02:36:44.822Z,97.90
2019-05-12T02:39:11.040Z,97.80
2019-05-12T02:41:37.206Z,97.80
2019-05-12T02:44:05.296Z,97.70
2019-05-12T02:46:34.532Z,97.80
2019-05-12T02:48:59.827Z,97.80
2019-05-12T02:51:26.106Z,97.90
2019-05-12T02:53:54.556Z,97.60
2019-05-12T02:56:25.253Z,97.80
2019-05-12T02:58:54.373Z,97.70
2019-05-12T03:01:20.639Z,97.80
2019-05-12T03:03:49.859Z,97.60
2019-05-12T03:06:18.067Z,97.70
2019-05-12T03:08:46.800Z,97.50
2019-05-12T03:11:14.858Z,97.70
2019-05-12T03:13:41.301Z,97.70
2019-05-12T03:16:07.514Z,97.80
2019-05-12T03:18:34.770Z,97.70
2019-05-12T03:21:01.295Z,97.80
2019-05-12T03:23:27.549Z,98.00
2019-05-12T03:25:54.634Z,97.90
2019-05-12T03:28:21.239Z,97.70
2019-05-12T03:30:49.553Z,98.10
2019-05-12T03:33:19.350Z,97.90
2019-05-12T03:35:52.300Z,97.90
2019-05-12T03:38:14.888Z,97.90
2019-05-12T03:40:40.255Z,97.90
2019-05-12T03:43:06.462Z,97.90
2019-05-12T03:45:35.888Z,97.80
2019-05-12T03:48:04.051Z,97.80
2019-05-12T03:50:29.296Z,98.00
2019-05-12T03:52:56.662Z,97.80
2019-05-12T03:55:35.010Z,97.90
2019-05-12T03:57:51.214Z,98.00
2019-05-12T04:00:17.885Z,98.00
2019-05-12T04:02:45.349Z,97.90
2019-05-12T04:05:15.099Z,97.80
2019-05-12T04:07:44.793Z,97.70
2019-05-12T04:10:10.021Z,97.80
2019-05-12T04:12:36.278Z,97.90
2019-05-12T04:15:05.411Z,97.90
2019-05-12T04:17:34.699Z,97.80
2019-05-12T04:19:59.834Z,97.80
2019-05-12T04:22:25.990Z,97.70
2019-05-12T04:24:54.911Z,97.70
2019-05-12T04:27:20.229Z,97.60
2019-05-12T04:29:46.460Z,97.50
2019-05-12T04:32:14.325Z,97.40
2019-05-12T04:34:40.759Z,97.30
2019-05-12T04:37:06.933Z,97.60
2019-05-12T04:39:34.093Z,97.50
2019-05-12T04:42:01.737Z,97.40
2019-05-12T04:44:27.927Z,97.50
2019-05-12T04:46:55.485Z,97.40
2019-05-12T04:49:25.080Z,97.40
2019-05-12T04:51:50.074Z,97.40
2019-05-12T04:54:16.239Z,97.10
2019-05-12T04:56:44.576Z,97.10
2019-05-12T04:59:10.545Z,97.10
2019-05-12T05:01:36.763Z,97.10
2019-05-12T05:04:05.472Z,97.20
2019-05-12T05:06:34.118Z,97.00
2019-05-12T05:08:59.538Z,96.90
2019-05-12T05:11:25.698Z,96.70
2019-05-12T05:13:54.606Z,96.80
2019-05-12T05:16:19.973Z,96.80
2019-05-12T05:18:46.170Z,96.60
2019-05-12T05:21:13.899Z,96.90
2019-05-12T05:23:40.318Z,97.00
2019-05-12T05:26:20.668Z,96.90
2019-05-12T05:28:34.607Z,96.90
2019-05-12T05:31:00.863Z,96.90
2019-05-12T05:33:27.025Z,96.60
2019-05-12T05:35:54.253Z,96.60
2019-05-12T05:38:20.997Z,96.50
2019-05-12T05:40:47.359Z,96.20
2019-05-12T05:43:18.271Z,96.20
2019-05-12T05:45:43.821Z,96.00
2019-05-12T05:48:10.415Z,96.10
2019-05-12T05:50:36.839Z,96.10
2019-05-12T05:53:03.798Z,96.20
2019-05-12T05:55:30.507Z,96.10
2019-05-12T05:57:59.862Z,96.20
2019-05-12T06:00:26.467Z,96.10
2019-05-12T06:02:54.502Z,96.20
2019-05-12T06:05:26.470Z,96.20
2019-05-12T06:07:49.013Z,96.10
2019-05-12T06:10:15.562Z,96.10
2019-05-12T06:12:48.555Z,96.30
2019-05-12T06:15:10.704Z,96.40
2019-05-12T06:17:37.076Z,96.20
2019-05-12T06:20:04.400Z,96.20
2019-05-12T06:22:30.835Z,96.00
2019-05-12T06:24:58.872Z,95.70
2019-05-12T06:27:25.196Z,96.00
2019-05-12T06:29:53.788Z,95.60
2019-05-12T06:32:19.581Z,95.90
2019-05-12T06:34:45.818Z,95.80
2019-05-12T06:37:16.197Z,95.80
2019-05-12T06:39:40.110Z,95.80
2019-05-12T06:42:12.699Z,95.80
2019-05-12T06:44:34.453Z,95.40
2019-05-12T06:47:03.607Z,95.30
2019-05-12T06:49:28.720Z,95.60
2019-05-12T06:52:01.434Z,95.20
2019-05-12T06:54:24.763Z,95.10
2019-05-12T06:56:56.140Z,95.10
2019-05-12T06:59:19.192Z,94.80
2019-05-12T07:01:49.910Z,94.50
2019-05-12T07:04:14.149Z,94.80
2019-05-12T07:06:40.526Z,94.50
2019-05-12T07:09:09.749Z,94.40
2019-05-12T07:11:44.971Z,94.10
2019-05-12T07:14:07.754Z,93.60
2019-05-12T07:16:33.929Z,93.90
2019-05-12T07:18:59.514Z,93.90
2019-05-12T07:21:27.310Z,94.20
2019-05-12T07:23:53.722Z,95.00
2019-05-12T07:26:23.439Z,95.00
2019-05-12T07:28:49.980Z,94.60
2019-05-12T07:31:16.585Z,94.80
2019-05-12T07:33:45.713Z,94.00
2019-05-12T07:36:13.609Z,94.10
2019-05-12T07:38:40.267Z,94.10
2019-05-12T07:41:10.644Z,94.10
2019-05-12T07:43:37.130Z,94.50
2019-05-12T07:46:07.172Z,94.00
2019-05-12T07:48:33.392Z,94.30
2019-05-12T07:51:00.785Z,94.00
2019-05-12T07:53:27.275Z,94.40
2019-05-12T07:55:53.493Z,94.30
2019-05-12T07:58:19.823Z,94.40
2019-05-12T08:00:46.018Z,94.40
2019-05-12T08:03:21.018Z,94.20
2019-05-12T08:05:40.275Z,93.80
2019-05-12T08:08:10.735Z,93.70
2019-05-12T08:10:34.965Z,94.30
2019-05-12T08:13:01.120Z,93.90
2019-05-12T08:15:27.315Z,93.40
2019-05-12T08:17:55.353Z,93.50
2019-05-12T08:20:23.755Z,93.30
2019-05-12T08:22:49.649Z,93.80
2019-05-12T08:25:18.823Z,93.70
2019-05-12T08:27:45.142Z,92.90
2019-05-12T08:30:13.825Z,93.20
2019-05-12T08:32:40.406Z,93.00
2019-05-12T08:35:06.810Z,92.70
2019-05-12T08:37:33.429Z,93.10
2019-05-12T08:40:03.242Z,93.40
2019-05-12T08:42:30.017Z,93.80
2019-05-12T08:44:56.362Z,93.70
2019-05-12T08:47:23.846Z,93.20
2019-05-12T08:49:56.051Z,93.80
2019-05-12T08:52:18.457Z,94.30
2019-05-12T08:54:48.215Z,93.70
2019-05-12T08:57:14.326Z,93.90
2019-05-12T08:59:40.752Z,93.50
2019-05-12T09:02:10.571Z,93.50
2019-05-12T09:04:35.147Z,94.20
2019-05-12T09:07:01.544Z,93.10
2019-05-12T09:09:27.983Z,94.00
2019-05-12T09:11:54.373Z,93.80
2019-05-12T09:14:20.737Z,93.70
2019-05-12T09:16:46.888Z,93.40
2019-05-12T09:19:18.208Z,93.60
2019-05-12T09:21:44.205Z,94.20
2019-05-12T09:24:15.564Z,93.90
2019-05-12T09:26:38.867Z,94.00
2019-05-12T09:29:07.397Z,94.10
2019-05-12T09:31:33.823Z,93.50
2019-05-12T09:34:05.515Z,93.90
2019-05-12T09:36:28.161Z,94.00
2019-05-12T09:39:01.644Z,93.90
2019-05-12T09:41:24.035Z,93.70
2019-05-12T09:43:50.644Z,93.20
2019-05-12T09:46:16.879Z,93.20
2019-05-12T09:48:46.894Z,93.00
2019-05-12T09:51:13.188Z,93.10
2019-05-12T09:53:42.916Z,93.20
2019-05-12T09:56:07.287Z,92.90
2019-05-12T09:58:33.773Z,92.50
2019-05-12T10:01:00.029Z,92.80
2019-05-12T10:03:26.213Z,93.20
2019-05-12T10:05:53.453Z,93.50
2019-05-12T10:08:21.433Z,92.50
2019-05-12T10:10:47.592Z,92.90
2019-05-12T10:13:13.931Z,92.90
2019-05-12T10:15:40.155Z,92.20
2019-05-12T10:18:10.794Z,92.60
2019-05-12T10:20:39.582Z,92.50
2019-05-12T10:23:04.295Z,92.30
2019-05-12T10:25:30.835Z,92.70
2019-05-12T10:27:57.147Z,92.20
2019-05-12T10:30:24.385Z,92.10
2019-05-12T10:32:50.795Z,92.50
2019-05-12T10:35:21.884Z,92.00
2019-05-12T10:37:47.254Z,92.30
2019-05-12T10:40:16.168Z,92.20
2019-05-12T10:42:46.035Z,92.00
2019-05-12T10:45:20.452Z,91.60
2019-05-12T10:47:45.819Z,91.40
2019-05-12T10:50:14.236Z,91.90
2019-05-12T10:52:40.472Z,91.40
2019-05-12T10:55:07.671Z,92.10
2019-05-12T10:57:33.986Z,92.60
2019-05-12T11:00:00.207Z,91.70
2019-05-12T11:02:30.441Z,91.50
2019-05-12T11:04:54.477Z,91.70
2019-05-12T11:07:22.944Z,91.80
2019-05-12T11:09:48.757Z,91.60
2019-05-12T11:12:19.006Z,91.70
2019-05-12T11:14:43.965Z,92.10
2019-05-12T11:17:11.143Z,92.40
2019-05-12T11:19:40.743Z,92.00
2019-05-12T11:22:05.380Z,91.30
2019-05-12T11:24:33.690Z,91.90
2019-05-12T11:26:59.658Z,92.10
2019-05-12T11:29:25.805Z,92.40
2019-05-12T11:31:53.830Z,92.20
2019-05-12T11:34:20.115Z,91.90
2019-05-12T11:36:46.306Z,92.40
2019-05-12T11:39:14.249Z,92.50
2019-05-12T11:41:40.609Z,92.20
2019-05-12T11:44:06.866Z,91.90
2019-05-12T11:46:36.213Z,91.70
2019-05-12T11:49:01.202Z,91.80
2019-05-12T11:51:30.523Z,91.60
2019-05-12T11:53:55.443Z,91.20
2019-05-12T11:56:24.161Z,91.40
2019-05-12T11:58:51.444Z,91.60
2019-05-12T12:01:19.980Z,91.50
2019-05-12T12:03:46.157Z,91.40
2019-05-12T12:06:13.481Z,91.70
2019-05-12T12:08:39.829Z,91.20
2019-05-12T12:11:10.567Z,91.40
2019-05-12T12:13:34.161Z,91.90
2019-05-12T12:16:05.574Z,91.90
2019-05-12T12:18:28.467Z,92.10
2019-05-12T12:21:02.870Z,92.40
2019-05-12T12:23:23.974Z,92.10
2019-05-12T12:25:50.218Z,91.60
2019-05-12T12:28:16.443Z,91.60
2019-05-12T12:30:47.258Z,91.40
2019-05-12T12:33:10.708Z,91.90
2019-05-12T12:35:36.914Z,91.70
2019-05-12T12:38:03.713Z,91.70
2019-05-12T12:40:30.170Z,92.00
2019-05-12T12:42:56.332Z,91.30
2019-05-12T12:45:43.416Z,91.40
2019-05-12T12:48:09.811Z,91.30
2019-05-12T12:50:36.253Z,91.50
2019-05-12T12:53:02.651Z,91.90
2019-05-12T12:55:28.882Z,92.10
2019-05-12T12:57:55.026Z,91.90
2019-05-12T13:00:31.845Z,90.70
2019-05-12T13:02:49.540Z,90.80
2019-05-12T13:05:15.747Z,91.40
2019-05-12T13:07:43.960Z,91.30
2019-05-12T13:10:10.274Z,91.30
2019-05-12T13:12:36.458Z,91.40
2019-05-12T13:15:04.748Z,90.50
2019-05-12T13:17:36.535Z,90.90
2019-05-12T13:19:59.982Z,90.20
2019-05-12T13:22:29.322Z,90.10
2019-05-12T13:24:58.305Z,90.10
2019-05-12T13:27:27.186Z,88.90
2019-05-12T13:29:50.785Z,88.30
2019-05-12T13:32:17.000Z,86.70
2019-05-12T13:34:43.544Z,88.10
2019-05-12T13:37:18.174Z,86.80
2019-05-12T13:39:37.806Z,86.00
2019-05-12T13:42:04.010Z,85.40
2019-05-12T13:44:35.251Z,86.50
2019-05-12T13:46:58.992Z,85.00
2019-05-12T13:49:29.854Z,84.90
2019-05-12T13:51:53.826Z,85.50
2019-05-12T13:54:25.334Z,86.40
2019-05-12T13:56:48.250Z,88.10
2019-05-12T13:59:20.605Z,87.20
2019-05-12T14:01:45.497Z,90.30
2019-05-12T14:04:10.681Z,91.30
2019-05-12T14:06:38.089Z,91.60
2019-05-12T14:09:05.758Z,91.50
2019-05-12T14:11:34.242Z,91.00
2019-05-12T14:14:00.122Z,91.30
2019-05-12T14:16:26.284Z,90.90
2019-05-12T14:18:56.898Z,91.10
2019-05-12T14:21:20.627Z,90.80
2019-05-12T14:23:46.900Z,90.80
2019-05-12T14:26:13.698Z,91.20
2019-05-12T14:28:45.715Z,91.70
2019-05-12T14:31:08.208Z,91.60
2019-05-12T14:33:35.773Z,92.00
2019-05-12T14:36:04.106Z,92.30
2019-05-12T14:38:30.572Z,92.20
2019-05-12T14:41:01.266Z,91.80
2019-05-12T14:43:26.267Z,91.90
2019-05-12T14:45:54.185Z,92.10
2019-05-12T14:48:23.590Z,92.20
2019-05-12T14:50:53.586Z,92.30
2019-05-12T14:53:23.693Z,92.80
2019-05-12T14:55:49.876Z,93.10
2019-05-12T14:58:20.536Z,92.90
2019-05-12T15:00:50.989Z,93.10
2019-05-12T15:03:16.511Z,92.80
2019-05-12T15:05:47.357Z,92.50
2019-05-12T15:08:11.001Z,92.40
2019-05-12T15:10:37.170Z,92.70
2019-05-12T15:13:03.617Z,92.20
2019-05-12T15:15:29.921Z,92.80
2019-05-12T15:18:03.081Z,92.30
2019-05-12T15:20:24.242Z,92.40
2019-05-12T15:22:55.207Z,92.10
2019-05-12T15:25:20.668Z,91.90
2019-05-12T15:27:48.476Z,92.10
2019-05-12T15:30:22.748Z,91.30
2019-05-12T15:32:43.545Z,91.20
2019-05-12T15:35:09.862Z,90.60
2019-05-12T15:37:38.980Z,90.80
2019-05-12T15:40:05.952Z,90.90
2019-05-12T15:42:33.659Z,90.80
2019-05-12T15:44:59.959Z,90.50
2019-05-12T15:47:29.666Z,90.60
2019-05-12T15:49:54.309Z,90.30
2019-05-12T15:52:20.485Z,90.60
2019-05-12T15:54:51.144Z,91.00
2019-05-12T15:57:14.984Z,90.70
2019-05-12T15:59:43.379Z,90.90
2019-05-12T16:02:14.613Z,90.90
2019-05-12T16:04:42.898Z,90.70
2019-05-12T16:07:05.498Z,90.50
2019-05-12T16:09:34.196Z,90.30
2019-05-12T16:11:59.860Z,90.80
2019-05-12T16:14:30.532Z,91.10
2019-05-12T16:16:54.154Z,91.30
2019-05-12T16:19:20.322Z,91.30
2019-05-12T16:21:46.500Z,91.30
2019-05-12T16:24:15.476Z,91.70
2019-05-12T16:26:42.919Z,92.40
2019-05-12T16:29:08.820Z,92.80
2019-05-12T16:31:39.391Z,92.90
2019-05-12T16:34:05.897Z,92.60
2019-05-12T16:36:33.611Z,92.60
2019-05-12T16:39:00.401Z,92.90
2019-05-12T16:41:29.800Z,92.90
2019-05-12T16:43:55.025Z,92.90
2019-05-12T16:46:23.373Z,93.00
2019-05-12T16:48:54.604Z,92.80
2019-05-12T16:51:17.518Z,92.80
2019-05-12T16:53:44.172Z,93.30
2019-05-12T16:56:10.430Z,93.20
2019-05-12T16:58:36.683Z,93.30
2019-05-12T17:01:03.734Z,93.50
2019-05-12T17:03:30.260Z,93.60
2019-05-12T17:05:57.914Z,93.60
2019-05-12T17:08:24.265Z,93.40
2019-05-12T17:11:01.176Z,93.40
2019-05-12T17:13:18.708Z,93.20
2019-05-12T17:15:48.828Z,93.00
2019-05-12T17:18:14.945Z,93.20
2019-05-12T17:20:46.298Z,93.40
2019-05-12T17:23:09.290Z,93.50
2019-05-12T17:25:35.451Z,93.50
2019-05-12T17:28:03.617Z,93.70
2019-05-12T17:30:29.860Z,93.50
2019-05-12T17:33:00.846Z,93.30
2019-05-12T17:35:26.985Z,93.50
2019-05-12T17:37:53.563Z,93.80
2019-05-12T17:40:20.430Z,93.90
2019-05-12T17:42:46.767Z,93.40
2019-05-12T17:45:15.849Z,93.40
2019-05-12T17:47:44.142Z,93.60
2019-05-12T17:50:10.578Z,93.80
2019-05-12T17:52:36.801Z,93.90
2019-05-12T17:55:10.512Z,93.90
2019-05-12T17:57:33.987Z,93.70
2019-05-12T18:00:08.565Z,93.60
2019-05-12T18:02:28.512Z,93.60
2019-05-12T18:04:54.698Z,94.40
2019-05-12T18:07:20.877Z,94.90
2019-05-12T18:09:50.387Z,95.00
2019-05-12T18:12:15.500Z,95.20
2019-05-12T18:14:46.760Z,95.20
2019-05-12T18:17:11.065Z,95.30
2019-05-12T18:19:37.261Z,94.90
2019-05-12T18:22:09.052Z,94.80
2019-05-12T18:24:31.629Z,94.70
2019-05-12T18:27:04.201Z,94.00
2019-05-12T18:29:25.875Z,93.70
2019-05-12T18:31:53.435Z,93.80
2019-05-12T18:34:20.148Z,95.30
2019-05-12T18:36:49.006Z,95.10
2019-05-12T18:39:15.402Z,95.00
2019-05-12T18:41:43.814Z,95.20
2019-05-12T18:44:09.873Z,94.60
2019-05-12T18:46:44.714Z,94.50
2019-05-12T18:49:11.987Z,94.50
2019-05-12T18:51:34.261Z,92.60
2019-05-12T18:54:03.564Z,91.10
2019-05-12T18:56:29.471Z,91.90
2019-05-12T18:58:56.629Z,92.60
2019-05-12T19:01:24.478Z,93.00
2019-05-12T19:03:51.344Z,93.60
2019-05-12T19:06:17.895Z,93.50
2019-05-12T19:08:44.055Z,93.90
2019-05-12T19:11:20.069Z,94.60
2019-05-12T19:13:43.191Z,94.80
2019-05-12T19:16:07.487Z,95.20
2019-05-12T19:18:37.272Z,95.50
2019-05-12T19:21:04.403Z,95.40
2019-05-12T19:23:35.009Z,95.60
2019-05-12T19:25:58.461Z,95.70
2019-05-12T19:28:24.635Z,95.60
2019-05-12T19:30:50.912Z,95.80
2019-05-12T19:33:17.105Z,95.70
2019-05-12T19:35:43.404Z,95.80
2019-05-12T19:38:09.675Z,95.80
2019-05-12T19:40:35.882Z,95.60
2019-05-12T19:43:07.907Z,95.70
2019-05-12T19:45:30.132Z,95.50
2019-05-12T19:47:56.318Z,95.60
2019-05-12T19:50:22.556Z,96.10
2019-05-12T19:52:48.712Z,95.90
2019-05-12T19:55:14.901Z,95.80
2019-05-12T19:57:41.058Z,95.60
2019-05-12T20:00:07.949Z,95.60
2019-05-12T20:02:34.331Z,95.50
2019-05-12T20:05:00.677Z,95.50
2019-05-12T20:07:28.203Z,95.50
2019-05-12T20:09:55.924Z,95.50
2019-05-12T20:12:24.151Z,95.50
2019-05-12T20:15:00.678Z,96.00
2019-05-12T20:17:26.865Z,95.60
2019-05-12T20:19:53.982Z,95.70
2019-05-12T20:22:20.415Z,95.70
2019-05-12T20:24:46.590Z,96.00
2019-05-12T20:27:17.385Z,95.90
2019-05-12T20:29:43.321Z,95.80
2019-05-12T20:32:09.331Z,96.00
2019-05-12T20:34:48.063Z,96.00
2019-05-12T20:37:07.604Z,95.80
2019-05-12T20:39:31.691Z,95.70
2019-05-12T20:42:00.790Z,95.80
2019-05-12T20:44:25.971Z,95.90
2019-05-12T20:46:56.068Z,95.90
2019-05-12T20:49:20.537Z,95.90
2019-05-12T20:51:48.339Z,95.90
2019-05-12T20:54:18.068Z,96.00
2019-05-12T20:56:43.454Z,96.10
2019-05-12T20:59:13.810Z,96.10
2019-05-12T21:01:37.999Z,96.20
2019-05-12T21:04:07.497Z,95.90
2019-05-12T21:06:40.965Z,95.80
2019-05-12T21:09:00.598Z,95.90
2019-05-12T21:11:26.781Z,95.80
2019-05-12T21:13:54.538Z,96.10
2019-05-12T21:16:31.141Z,96.00
2019-05-12T21:18:55.827Z,95.90
2019-05-12T21:21:17.862Z,95.80
2019-05-12T21:23:47.896Z,96.00
2019-05-12T21:26:12.239Z,96.20
2019-05-12T21:28:46.104Z,96.00
2019-05-12T21:31:06.514Z,95.90
2019-05-12T21:33:39.901Z,96.00
2019-05-12T21:36:03.647Z,96.10
2019-05-12T21:38:29.876Z,96.30
2019-05-12T21:40:56.090Z,95.90
2019-05-12T21:43:22.291Z,96.00
2019-05-12T21:45:48.453Z,95.80
2019-05-12T21:48:23.435Z,95.90
2019-05-12T21:50:44.293Z,95.90
2019-05-12T21:53:17.436Z,96.00
2019-05-12T21:55:38.723Z,96.00
2019-05-12T21:58:10.622Z,96.10
2019-05-12T22:00:40.061Z,96.20
2019-05-12T22:03:12.376Z,96.00
2019-05-12T22:05:50.577Z,96.10
2019-05-12T22:08:06.433Z,96.10
2019-05-12T22:10:34.460Z,96.10
2019-05-12T22:13:08.984Z,96.00
2019-05-12T22:15:29.353Z,96.00
2019-05-12T22:17:57.448Z,96.00
2019-05-12T22:20:24.763Z,96.10
2019-05-12T22:23:00.546Z,96.10
2019-05-12T22:25:29.449Z,96.20
2019-05-12T22:27:59.222Z,96.20
2019-05-12T22:30:24.485Z,96.10
2019-05-12T22:32:50.666Z,96.40
2019-05-12T22:35:22.124Z,96.90
2019-05-12T22:37:45.176Z,96.60
2019-05-12T22:40:17.450Z,96.70
2019-05-12T22:42:39.975Z,96.50
2019-05-12T22:45:06.568Z,96.40
2019-05-12T22:47:33.812Z,96.40
2019-05-12T22:50:00.963Z,96.70
2019-05-12T22:52:27.153Z,96.70
2019-05-12T22:54:53.793Z,96.50
2019-05-12T22:57:20.182Z,96.30
2019-05-12T22:59:46.605Z,96.50
2019-05-12T23:02:15.972Z,96.30
2019-05-12T23:04:40.884Z,96.40
2019-05-12T23:07:08.185Z,96.40
2019-05-12T23:09:34.489Z,96.40
2019-05-12T23:12:00.664Z,96.40
2019-05-12T23:14:26.848Z,96.30
2019-05-12T23:16:54.562Z,96.40
2019-05-12T23:19:20.917Z,96.30
2019-05-12T23:21:49.461Z,96.40
2019-05-12T23:24:15.161Z,96.60
2019-05-12T23:26:43.086Z,96.50
2019-05-12T23:29:09.515Z,96.30
2019-05-12T23:31:35.665Z,96.30
2019-05-12T23:34:06.525Z,96.50
2019-05-12T23:36:36.600Z,96.50
2019-05-12T23:39:00.671Z,96.80
2019-05-12T23:41:26.650Z,96.70
2019-05-12T23:43:53.779Z,97.00
2019-05-12T23:46:20.120Z,97.00
2019-05-12T23:48:46.313Z,96.90
2019-05-12T23:51:14.281Z,96.80
2019-05-12T23:53:40.558Z,96.60
2019-05-12T23:56:06.712Z,96.60
2019-05-12T23:58:33.112Z,96.60
